Time;durP1;ratioP1;P1;durP2;ratioP2;P2;SDS_P1;SDS_P2;PMS_P1;PMS_P2;Temp;Humidity;BMP_temperature;BMP_pressure;BME280_temperature;BME280_humidity;BME280_pressure;Samples;Min_cycle;Max_cycle;Signal;HPM_P1;HPM_P2
2022/06/05 00:01:35;;;;;;;136.98;130.25;;;11.50;99.90;;;;;;5134497;27;20045;-61
2022/06/05 00:04:22;;;;;;;147.75;140.55;;;11.50;99.90;;;;;;5133749;27;20058;-61
2022/06/05 00:07:15;;;;;;;202.13;192.40;;;11.50;99.90;;;;;;5134378;27;20082;-61
2022/06/05 00:09:56;;;;;;;;;;;11.50;99.90;;;;;;5122256;27;20482;-65
2022/06/05 00:12:33;;;;;;;164.43;156.68;;;11.40;99.90;;;;;;5134987;27;19923;-61
2022/06/05 00:14:59;;;;;;;260.92;248.77;;;11.40;99.90;;;;;;5134606;27;20069;-61
2022/06/05 00:17:25;;;;;;;272.13;259.38;;;11.40;99.90;;;;;;5115669;27;20565;-61
2022/06/05 00:19:53;;;;;;;172.90;164.65;;;11.50;99.90;;;;;;5134267;27;20458;-61
2022/06/05 00:22:20;;;;;;;147.75;140.55;;;11.50;99.90;;;;;;5133996;27;20095;-61
2022/06/05 00:24:46;;;;;;;127.78;121.30;;;11.40;99.90;;;;;;5133449;27;20055;-61
2022/06/05 00:27:25;;;;;;;128.20;121.93;;;11.40;99.90;;;;;;5112273;28;20043;-61
2022/06/05 00:30:14;;;;;;;211.52;201.98;;;11.40;99.90;;;;;;5113387;28;20503;-61
2022/06/05 00:32:44;;;;;;;162.70;155.07;;;11.40;99.90;;;;;;5113165;28;20127;-61
2022/06/05 00:35:15;;;;;;;93.30;88.20;;;11.40;99.90;;;;;;5112565;28;20051;-61
2022/06/05 00:38:02;;;;;;;136.23;129.35;;;11.40;99.90;;;;;;5112772;28;20052;-61
2022/06/05 00:40:32;;;;;;;196.13;187.20;;;11.40;99.90;;;;;;5113526;28;20044;-61
2022/06/05 00:43:00;;;;;;;137.75;130.98;;;11.50;99.90;;;;;;5133487;27;20079;-61
2022/06/05 00:45:30;;;;;;;128.10;121.90;;;11.40;99.90;;;;;;5110700;28;20489;-61
2022/06/05 00:47:56;;;;;;;124.45;118.47;;;11.50;99.90;;;;;;5113431;28;20134;-61
2022/06/05 00:50:27;;;;;;;126.40;119.80;;;11.50;99.90;;;;;;5113637;28;20097;-61
2022/06/05 00:52:56;;;;;;;121.78;115.45;;;11.50;99.90;;;;;;5112675;28;20104;-61
2022/06/05 00:55:24;;;;;;;117.35;111.15;;;11.60;99.90;;;;;;5113392;28;20100;-61
2022/06/05 00:57:53;;;;;;;110.93;105.20;;;11.50;99.90;;;;;;5119626;27;20035;-61
2022/06/05 01:00:25;;;;;;;111.80;106.07;;;11.50;99.90;;;;;;5132097;27;20055;-61
2022/06/05 01:02:54;;;;;;;117.22;111.20;;;11.50;99.90;;;;;;5133601;27;20049;-61
2022/06/05 01:05:23;;;;;;;124.57;118.00;;;11.50;99.90;;;;;;5133759;27;20374;-61
2022/06/05 01:07:49;;;;;;;111.70;105.95;;;11.50;99.90;;;;;;5132608;28;20130;-61
2022/06/05 01:10:17;;;;;;;118.90;112.80;;;11.40;99.90;;;;;;5133671;28;20047;-61
2022/06/05 01:12:56;;;;;;;108.93;103.20;;;11.40;99.90;;;;;;5132272;28;20107;-61
2022/06/05 01:15:28;;;;;;;117.40;111.22;;;11.40;99.90;;;;;;5133856;28;20047;-61
2022/06/05 01:18:06;;;;;;;102.38;97.10;;;11.40;99.90;;;;;;5133834;28;20043;-61
2022/06/05 01:20:48;;;;;;;111.95;105.97;;;11.40;99.90;;;;;;5132104;28;20039;-61
2022/06/05 01:23:49;;;;;;;107.22;101.55;;;11.40;99.90;;;;;;5133724;28;20042;-61
2022/06/05 01:26:19;;;;;;;109.03;103.35;;;11.40;99.90;;;;;;5133462;28;20421;-61
2022/06/05 01:29:01;;;;;;;110.00;104.25;;;11.40;99.90;;;;;;5132081;28;20051;-61
2022/06/05 01:31:31;;;;;;;114.22;108.32;;;11.50;99.90;;;;;;5133344;28;20056;-61
2022/06/05 01:34:10;;;;;;;113.60;107.55;;;11.40;99.90;;;;;;5132956;28;20093;-61
2022/06/05 01:36:36;;;;;;;122.95;116.25;;;11.50;99.90;;;;;;5133281;28;20043;-61
2022/06/05 01:39:10;;;;;;;117.28;111.20;;;11.50;99.90;;;;;;5133118;28;20450;-61
2022/06/05 01:41:42;;;;;;;123.20;116.30;;;11.50;99.90;;;;;;5114208;28;20126;-61
2022/06/05 01:44:13;;;;;;;105.80;100.20;;;11.40;99.90;;;;;;5132937;28;20104;-61
2022/06/05 01:46:39;;;;;;;114.18;108.28;;;11.40;99.90;;;;;;5111071;28;20055;-61
2022/06/05 01:49:44;;;;;;;122.20;115.50;;;11.40;99.90;;;;;;5112249;28;20466;-61
2022/06/05 01:52:20;;;;;;;122.88;116.85;;;11.50;99.90;;;;;;5112086;28;20056;-61
2022/06/05 01:55:05;;;;;;;114.65;108.60;;;11.50;99.90;;;;;;5112905;28;20055;-61
2022/06/05 01:57:33;;;;;;;120.68;114.35;;;11.50;99.90;;;;;;5094320;28;20040;-61
2022/06/05 02:00:07;;;;;;;118.45;112.32;;;11.50;99.90;;;;;;5133403;28;20074;-61
2022/06/05 02:02:40;;;;;;;125.80;118.55;;;11.50;99.90;;;;;;5132336;28;20122;-61
2022/06/05 02:05:14;;;;;;;117.50;111.25;;;11.50;99.90;;;;;;5132839;28;20081;-61
2022/06/05 02:07:44;;;;;;;120.45;114.25;;;11.60;99.90;;;;;;5133215;28;20043;-61
2022/06/05 02:10:19;;;;;;;113.18;107.45;;;11.60;99.90;;;;;;5114129;27;20054;-61
2022/06/05 02:12:45;;;;;;;117.20;111.05;;;11.60;99.90;;;;;;5136260;27;20047;-61
2022/06/05 02:15:12;;;;;;;121.15;114.65;;;11.60;99.90;;;;;;5137024;27;20047;-61
2022/06/05 02:17:38;;;;;;;124.13;117.38;;;11.60;99.90;;;;;;5136227;27;20039;-61
2022/06/05 02:20:07;;;;;;;120.95;114.25;;;11.60;99.90;;;;;;5136743;27;20047;-61
2022/06/05 02:22:38;;;;;;;142.45;135.40;;;11.60;99.90;;;;;;5114427;28;20056;-61
2022/06/05 02:25:05;;;;;;;126.72;120.28;;;11.60;99.90;;;;;;5115491;28;20058;-61
2022/06/05 02:27:30;;;;;;;142.63;135.60;;;11.60;99.90;;;;;;5115843;28;20099;-61
2022/06/05 02:29:58;;;;;;;147.02;139.90;;;11.60;99.90;;;;;;5115852;28;20039;-61
2022/06/05 02:33:00;;;;;;;129.77;122.90;;;11.60;99.90;;;;;;5134491;27;20035;-61
2022/06/05 02:35:33;;;;;;;133.00;126.18;;;11.70;99.90;;;;;;5136449;27;20043;-61
2022/06/05 02:38:16;;;;;;;130.40;123.63;;;11.70;99.90;;;;;;5135746;27;20043;-60
2022/06/05 02:41:06;;;;;;;143.10;135.18;;;11.60;99.90;;;;;;5115155;27;20118;-61
2022/06/05 02:47:09;;;;;;;152.50;144.77;;;11.60;99.90;;;;;;5117661;27;20084;-61
2022/06/05 02:49:42;;;;;;;136.52;129.90;;;11.70;99.90;;;;;;5135732;27;20059;-61
2022/06/05 02:52:08;;;;;;;134.88;128.05;;;11.60;99.90;;;;;;5135424;27;20394;-61
2022/06/05 02:54:45;;;;;;;125.68;118.72;;;11.60;99.90;;;;;;5136367;27;20043;-61
2022/06/05 02:57:13;;;;;;;135.02;128.02;;;11.60;99.90;;;;;;5116977;27;20058;-61
2022/06/05 02:59:39;;;;;;;122.82;116.25;;;11.60;99.90;;;;;;5135242;27;20044;-61
2022/06/05 03:04:49;;;;;;;120.00;114.10;;;11.60;99.90;;;;;;5135597;27;20478;-61
2022/06/05 03:07:15;;;;;;;144.55;137.43;;;11.60;99.90;;;;;;5116323;27;20047;-61
2022/06/05 03:09:41;;;;;;;156.07;148.77;;;11.60;99.90;;;;;;5135750;27;20594;-61
2022/06/05 03:12:07;;;;;;;140.35;133.40;;;11.70;99.90;;;;;;5135509;27;20054;-61
2022/06/05 03:14:33;;;;;;;130.70;124.00;;;11.70;99.90;;;;;;5135034;27;20051;-61
2022/06/05 03:16:59;;;;;;;123.85;117.22;;;11.80;99.90;;;;;;5135994;27;20043;-61
2022/06/05 03:19:25;;;;;;;143.65;136.65;;;11.90;99.90;;;;;;5134607;27;20058;-61
2022/06/05 03:21:50;;;;;;;139.90;132.98;;;11.90;99.90;;;;;;5134927;27;20043;-61
2022/06/05 03:24:16;;;;;;;147.40;139.95;;;12.00;99.90;;;;;;5134672;27;20045;-61
2022/06/05 03:26:42;;;;;;;185.93;176.73;;;12.00;99.90;;;;;;5134627;27;20118;-61
2022/06/05 03:29:08;;;;;;;198.27;188.82;;;12.00;99.90;;;;;;5117324;27;20317;-61
2022/06/05 03:31:35;;;;;;;139.52;132.32;;;12.00;99.90;;;;;;5117145;27;20074;-61
2022/06/05 03:34:01;;;;;;;114.88;109.03;;;12.10;99.90;;;;;;5112386;28;20051;-61
2022/06/05 03:36:27;;;;;;;113.72;107.07;;;12.10;99.90;;;;;;5114562;28;20100;-61
2022/06/05 03:38:53;;;;;;;117.95;111.75;;;12.10;99.90;;;;;;5115236;27;20054;-61
2022/06/05 03:41:19;;;;;;;110.80;105.05;;;12.20;99.90;;;;;;5133267;27;20036;-61
2022/06/05 03:43:44;;;;;;;131.68;125.07;;;12.20;99.90;;;;;;5134516;27;20097;-61
2022/06/05 03:46:12;;;;;;;112.03;106.07;;;12.30;99.90;;;;;;5134545;27;20430;-61
2022/06/05 03:48:39;;;;;;;167.90;159.73;;;12.40;99.90;;;;;;5133337;27;20054;-61
2022/06/05 03:51:08;;;;;;;164.35;155.93;;;12.40;99.90;;;;;;5131235;27;20043;-61
2022/06/05 03:53:34;;;;;;;117.05;110.88;;;12.50;99.90;;;;;;5114363;28;20043;-61
2022/06/05 03:55:59;;;;;;;122.70;116.47;;;12.50;99.90;;;;;;5113600;28;20382;-61
2022/06/05 03:58:25;;;;;;;144.68;137.32;;;12.60;99.90;;;;;;5103137;27;20122;-61
2022/06/05 04:00:52;;;;;;;184.10;175.10;;;12.60;99.90;;;;;;5112556;28;20044;-61
2022/06/05 04:03:18;;;;;;;222.25;211.45;;;12.60;99.90;;;;;;5132524;27;20050;-61
2022/06/05 04:05:44;;;;;;;177.32;168.77;;;12.70;99.90;;;;;;5134885;27;20043;-61
2022/06/05 04:08:14;;;;;;;224.88;214.20;;;12.70;99.90;;;;;;5112324;28;20035;-61
2022/06/05 04:10:40;;;;;;;234.55;222.90;;;12.80;99.90;;;;;;5112900;28;20477;-61
2022/06/05 04:13:06;;;;;;;221.13;211.07;;;12.80;99.90;;;;;;5113033;28;20051;-61
2022/06/05 04:15:38;;;;;;;224.77;214.15;;;12.80;99.90;;;;;;5112052;28;20122;-61
2022/06/05 04:18:04;;;;;;;350.80;334.40;;;12.90;99.90;;;;;;5112129;28;20134;-61
2022/06/05 04:20:30;;;;;;;313.00;297.60;;;12.80;99.90;;;;;;5114136;28;20126;-61
2022/06/05 04:22:55;;;;;;;368.27;350.70;;;12.90;99.90;;;;;;5126989;27;20052;-61
2022/06/05 04:25:21;;;;;;;356.58;339.58;;;12.90;99.90;;;;;;5115268;27;20083;-61
2022/06/05 04:27:47;;;;;;;377.48;358.92;;;13.00;99.90;;;;;;5115737;27;20047;-62
2022/06/05 04:30:13;;;;;;;373.10;355.00;;;13.00;99.90;;;;;;5133749;27;20051;-61
2022/06/05 04:32:38;;;;;;;364.52;346.90;;;13.10;99.90;;;;;;5134099;27;20081;-61
2022/06/05 04:35:05;;;;;;;344.65;328.42;;;13.10;99.90;;;;;;5111905;28;20386;-61
2022/06/05 04:37:31;;;;;;;385.17;366.52;;;13.20;99.90;;;;;;5113250;28;20447;-61
2022/06/05 04:39:56;;;;;;;234.55;223.27;;;13.20;99.90;;;;;;5111996;28;20122;-61
2022/06/05 04:42:22;;;;;;;263.10;250.75;;;13.20;99.90;;;;;;5128238;27;20043;-61
2022/06/05 04:44:48;;;;;;;340.27;324.02;;;13.30;99.90;;;;;;5133165;27;20090;-61
2022/06/05 04:47:13;;;;;;;214.93;203.90;;;13.40;99.90;;;;;;5133977;27;20454;-61
2022/06/05 04:49:39;;;;;;;201.25;191.45;;;13.40;99.90;;;;;;5134061;27;20506;-61
2022/06/05 04:52:05;;;;;;;174.32;166.15;;;13.60;99.90;;;;;;5132952;27;20039;-61
2022/06/05 04:54:31;;;;;;;168.27;160.07;;;13.70;99.90;;;;;;5133969;27;20047;-61
2022/06/05 04:56:57;;;;;;;308.02;292.90;;;13.80;99.90;;;;;;5133644;27;20072;-61
2022/06/05 04:59:23;;;;;;;449.92;427.50;;;14.00;99.90;;;;;;5133005;27;20055;-61
2022/06/05 05:01:48;;;;;;;398.58;378.85;;;14.10;99.90;;;;;;5133203;27;20494;-61
2022/06/05 05:04:15;;;;;;;453.08;430.23;;;14.20;99.90;;;;;;5115112;27;20122;-61
2022/06/05 05:06:43;;;;;;;486.40;461.48;;;14.20;99.90;;;;;;5133183;28;20127;-61
2022/06/05 05:09:09;;;;;;;386.63;367.45;;;14.30;99.90;;;;;;5133739;28;20131;-61
2022/06/05 05:11:36;;;;;;;292.60;278.85;;;14.40;99.90;;;;;;5111034;28;20122;-61
2022/06/05 05:14:02;;;;;;;267.60;254.70;;;14.40;99.90;;;;;;5112507;28;20051;-61
2022/06/05 05:16:30;;;;;;;164.88;156.85;;;14.50;99.90;;;;;;5113047;28;20092;-61
2022/06/05 05:18:56;;;;;;;167.75;159.65;;;14.50;99.90;;;;;;5116409;28;20047;-61
2022/06/05 05:21:24;;;;;;;146.23;139.13;;;14.60;99.90;;;;;;5133395;28;20461;-61
2022/06/05 05:23:50;;;;;;;183.63;175.20;;;14.70;99.90;;;;;;5133662;28;20058;-61
2022/06/05 05:26:21;;;;;;;190.43;181.63;;;14.70;99.90;;;;;;5132587;28;20047;-61
2022/06/05 05:28:48;;;;;;;209.60;199.57;;;14.80;99.90;;;;;;5132970;28;20047;-61
2022/06/05 05:31:18;;;;;;;229.00;218.20;;;14.90;99.90;;;;;;5115337;28;20042;-61
2022/06/05 05:33:44;;;;;;;195.27;186.38;;;15.00;99.90;;;;;;5132603;28;20047;-61
2022/06/05 05:36:10;;;;;;;202.57;193.52;;;15.10;99.90;;;;;;5114776;28;20055;-61
2022/06/05 05:38:38;;;;;;;192.13;183.43;;;15.10;99.90;;;;;;5133288;28;20370;-61
2022/06/05 05:43:48;;;;;;;195.88;186.30;;;15.20;99.90;;;;;;5114817;28;20397;-61
2022/06/05 05:46:15;;;;;;;196.40;187.52;;;15.20;99.90;;;;;;5135217;27;20043;-58
2022/06/05 05:48:41;;;;;;;169.68;161.57;;;15.30;99.90;;;;;;5136161;27;20066;-58
2022/06/05 05:51:12;;;;;;;175.98;167.55;;;15.30;99.90;;;;;;5137549;27;20476;-58
2022/06/05 05:53:39;;;;;;;184.00;175.60;;;15.40;99.90;;;;;;5137317;27;20114;-59
2022/06/05 05:56:09;;;;;;;145.30;138.05;;;15.50;99.90;;;;;;5135642;27;20130;-58
2022/06/05 05:58:35;;;;;;;107.75;102.55;;;15.70;99.90;;;;;;5137255;27;20094;-59
2022/06/05 06:01:04;;;;;;;99.00;93.95;;;15.80;99.90;;;;;;5136491;27;20071;-59
2022/06/05 06:03:30;;;;;;;75.97;71.68;;;15.90;99.90;;;;;;5123329;27;20045;-59
2022/06/05 06:05:58;;;;;;;76.63;72.20;;;16.00;99.90;;;;;;5137323;27;20440;-59
2022/06/05 06:08:24;;;;;;;68.05;63.92;;;16.10;99.90;;;;;;5136161;27;20043;-59
2022/06/05 06:10:50;;;;;;;68.38;64.60;;;16.20;99.90;;;;;;5136693;27;20497;-59
2022/06/05 06:13:16;;;;;;;64.55;60.65;;;16.20;99.90;;;;;;5136700;27;20508;-58
2022/06/05 06:15:41;;;;;;;64.63;61.03;;;16.30;99.90;;;;;;5136208;27;20039;-59
2022/06/05 06:18:07;;;;;;;72.20;68.28;;;16.40;99.90;;;;;;5136891;27;20378;-58
2022/06/05 06:20:33;;;;;;;64.30;60.67;;;16.50;99.90;;;;;;5136395;27;20134;-58
2022/06/05 06:22:59;;;;;;;90.82;86.05;;;16.50;99.90;;;;;;5135973;27;20097;-59
2022/06/05 06:25:24;;;;;;;86.82;81.88;;;16.50;99.90;;;;;;5136390;27;20386;-59
2022/06/05 06:27:50;;;;;;;96.95;92.25;;;16.60;99.90;;;;;;5136412;27;20099;-59
2022/06/05 06:30:16;;;;;;;100.85;95.82;;;16.70;99.90;;;;;;5135589;27;20027;-59
2022/06/05 06:32:42;;;;;;;118.82;112.82;;;16.80;99.90;;;;;;5136262;27;20054;-58
2022/06/05 06:35:08;;;;;;;130.85;124.70;;;16.80;99.90;;;;;;5136736;27;20046;-59
2022/06/05 06:37:34;;;;;;;145.80;139.13;;;16.90;99.90;;;;;;5135900;27;20401;-59
2022/06/05 06:40:00;;;;;;;131.68;125.30;;;17.00;99.90;;;;;;5135962;27;20035;-59
2022/06/05 06:42:25;;;;;;;133.40;127.20;;;17.10;99.90;;;;;;5136182;27;20050;-59
2022/06/05 06:44:52;;;;;;;142.75;136.15;;;17.20;99.90;;;;;;5135648;27;20043;-59
2022/06/05 06:47:18;;;;;;;104.72;99.55;;;17.30;99.90;;;;;;5083380;27;20413;-58
2022/06/05 06:49:44;;;;;;;132.10;125.95;;;17.40;99.90;;;;;;5136492;27;20051;-59
2022/06/05 06:52:10;;;;;;;117.57;112.05;;;17.50;99.90;;;;;;5135140;27;20047;-59
2022/06/05 06:54:35;;;;;;;89.82;85.32;;;17.50;99.90;;;;;;5117371;27;20087;-59
2022/06/05 06:57:01;;;;;;;83.43;79.15;;;17.60;99.90;;;;;;5134895;27;20082;-59
2022/06/05 06:59:28;;;;;;;94.18;89.57;;;17.70;99.90;;;;;;5135246;27;20047;-58
2022/06/05 07:01:54;;;;;;;76.97;72.75;;;17.80;99.90;;;;;;5135471;27;20043;-59
2022/06/05 07:04:21;;;;;;;76.25;71.80;;;17.90;99.90;;;;;;5135254;27;20543;-59
2022/06/05 07:06:47;;;;;;;69.35;65.60;;;18.00;99.90;;;;;;5135459;27;20054;-58
2022/06/05 07:09:14;;;;;;;59.72;56.28;;;18.10;99.90;;;;;;5135524;27;20114;-59
2022/06/05 07:11:41;;;;;;;63.58;60.00;;;18.30;99.90;;;;;;5116788;27;20473;-59
2022/06/05 07:14:07;;;;;;;71.78;68.00;;;18.50;99.90;;;;;;5135544;27;20039;-59
2022/06/05 07:16:33;;;;;;;65.35;61.72;;;18.70;99.90;;;;;;5135572;27;20370;-59
2022/06/05 07:18:59;;;;;;;65.00;61.60;;;18.70;99.90;;;;;;5134869;27;20080;-59
2022/06/05 07:21:25;;;;;;;63.85;60.47;;;18.90;99.90;;;;;;5117302;27;20050;-59
2022/06/05 07:23:52;;;;;;;66.07;62.58;;;19.00;99.90;;;;;;5135152;27;20039;-59
2022/06/05 07:26:21;;;;;;;68.30;64.70;;;19.20;99.90;;;;;;5134938;27;20437;-59
2022/06/05 07:28:47;;;;;;;68.25;64.75;;;19.30;99.90;;;;;;5135507;27;20054;-59
2022/06/05 07:31:15;;;;;;;70.18;66.40;;;19.40;99.90;;;;;;5116574;27;20117;-59
2022/06/05 07:33:41;;;;;;;76.18;72.18;;;19.50;99.90;;;;;;5116387;27;20397;-59
2022/06/05 07:36:11;;;;;;;72.22;68.55;;;19.70;99.90;;;;;;5134884;27;20075;-59
2022/06/05 07:38:40;;;;;;;66.38;63.08;;;19.90;99.90;;;;;;5135204;27;20098;-59
2022/06/05 07:41:13;;;;;;;69.05;65.32;;;20.00;99.90;;;;;;5115546;27;20031;-59
2022/06/05 07:43:40;;;;;;;70.93;67.15;;;20.20;99.90;;;;;;5134787;27;20078;-59
2022/06/05 07:46:06;;;;;;;76.57;72.90;;;20.30;99.90;;;;;;5134983;27;20126;-59
2022/06/05 07:48:32;;;;;;;80.20;76.22;;;20.40;99.90;;;;;;5134233;27;20130;-59
2022/06/05 07:56:32;;;;;;;81.63;77.72;;;20.90;99.90;;;;;;5133404;27;20085;-59
2022/06/05 07:58:58;;;;;;;80.63;76.82;;;21.10;99.90;;;;;;5115695;27;20039;-59
2022/06/05 08:01:24;;;;;;;73.47;69.68;;;21.20;99.90;;;;;;5133508;27;20031;-59
2022/06/05 08:03:49;;;;;;;68.55;65.20;;;21.30;99.90;;;;;;5134375;27;20505;-59
2022/06/05 08:06:15;;;;;;;63.17;60.03;;;21.40;99.90;;;;;;5132870;27;20485;-59
2022/06/05 08:08:41;;;;;;;60.45;57.33;;;21.40;99.90;;;;;;5132108;27;20118;-59
2022/06/05 08:11:07;;;;;;;54.45;51.72;;;21.60;99.90;;;;;;5133760;27;20076;-59
2022/06/05 08:13:33;;;;;;;51.53;48.80;;;21.70;99.90;;;;;;5134437;27;20043;-59
2022/06/05 08:15:59;;;;;;;52.22;49.42;;;21.90;99.90;;;;;;5133312;27;20039;-59
2022/06/05 08:18:25;;;;;;;48.85;46.20;;;22.10;99.90;;;;;;5134825;27;20039;-59
2022/06/05 08:20:51;;;;;;;48.00;45.40;;;22.20;99.90;;;;;;5116027;27;20058;-59
2022/06/05 08:23:17;;;;;;;51.13;48.53;;;22.40;99.90;;;;;;5133155;27;20035;-59
2022/06/05 08:25:44;;;;;;;53.60;50.80;;;22.50;99.90;;;;;;5133295;27;20050;-59
2022/06/05 08:28:10;;;;;;;53.22;50.35;;;22.70;99.90;;;;;;5133527;27;20096;-59
2022/06/05 08:30:37;;;;;;;53.75;50.92;;;22.80;99.90;;;;;;5133301;27;20051;-60
2022/06/05 08:33:04;;;;;;;54.85;51.95;;;22.90;99.90;;;;;;5134377;27;20035;-60
2022/06/05 08:35:31;;;;;;;57.63;54.83;;;22.90;99.90;;;;;;5133933;27;20126;-59
2022/06/05 08:43:41;;;;;;;69.60;66.20;;;23.40;99.90;;;;;;5127312;27;20094;-61
2022/06/05 08:46:23;;;;;;;67.28;63.85;;;23.70;99.90;;;;;;5133547;27;20066;-61
2022/06/05 08:48:58;;;;;;;65.53;62.40;;;23.70;99.90;;;;;;5133033;27;20141;-61
2022/06/05 08:51:54;;;;;;;65.90;62.63;;;23.90;99.90;;;;;;5132816;27;20039;-60
2022/06/05 08:54:22;;;;;;;62.20;59.03;;;24.00;99.90;;;;;;5134020;27;20070;-60
2022/06/05 08:56:58;;;;;;;59.20;56.20;;;24.10;99.90;;;;;;5132371;27;20027;-61
2022/06/05 08:59:29;;;;;;;53.38;50.67;;;24.10;99.90;;;;;;5132058;27;20042;-60
2022/06/05 09:02:00;;;;;;;49.30;46.33;;;24.20;99.90;;;;;;5114793;28;20102;-61
2022/06/05 09:04:43;;;;;;;48.22;45.45;;;24.40;99.90;;;;;;5128549;27;20047;-59
2022/06/05 09:07:15;;;;;;;49.92;47.40;;;24.40;99.90;;;;;;5130222;27;20039;-62
2022/06/05 09:09:49;;;;;;;53.72;51.10;;;24.50;99.50;;;;;;5111338;28;20043;-61
2022/06/05 09:12:27;;;;;;;54.42;51.80;;;24.50;99.30;;;;;;5112558;28;20055;-62
2022/06/05 09:15:00;;;;;;;53.97;51.40;;;24.40;99.40;;;;;;5112722;28;20052;-61
2022/06/05 09:17:27;;;;;;;54.75;52.15;;;24.30;99.40;;;;;;5113070;28;20044;-61
2022/06/05 09:19:56;;;;;;;55.58;52.75;;;24.30;99.50;;;;;;5132333;27;20770;-62
2022/06/05 09:22:36;;;;;;;54.55;51.92;;;24.40;99.40;;;;;;5136900;27;20843;-62
2022/06/05 09:25:19;;;;;;;54.20;51.30;;;24.30;99.30;;;;;;5136449;27;20119;-62
2022/06/05 09:28:04;;;;;;;55.88;53.15;;;24.30;98.90;;;;;;5137518;27;20720;-62
2022/06/05 09:30:40;;;;;;;55.88;53.13;;;24.40;99.50;;;;;;5137108;27;20044;-62
2022/06/05 09:33:22;;;;;;;56.90;53.97;;;24.50;99.70;;;;;;5137195;27;20393;-62
2022/06/05 09:35:53;;;;;;;58.40;55.58;;;24.70;99.20;;;;;;5137463;27;20452;-62
2022/06/05 09:38:29;;;;;;;60.95;57.92;;;24.80;98.80;;;;;;5137858;27;20080;-62
2022/06/05 09:40:55;;;;;;;68.68;65.38;;;25.00;98.30;;;;;;5101121;27;20115;-62
2022/06/05 09:43:28;;;;;;;74.47;70.82;;;25.20;98.40;;;;;;5137170;27;20115;-62
2022/06/05 09:46:08;;;;;;;77.70;73.57;;;25.40;98.20;;;;;;5137364;27;20043;-62
2022/06/05 09:48:47;;;;;;;78.50;74.57;;;25.50;97.20;;;;;;5118867;27;20043;-62
2022/06/05 09:51:15;;;;;;;88.10;84.18;;;25.60;96.20;;;;;;5137249;27;20051;-61
2022/06/05 09:53:56;;;;;;;80.57;76.97;;;25.90;96.50;;;;;;5136114;27;20043;-62
2022/06/05 09:58:24;;;;;;;87.93;83.72;;;25.90;96.50;;;;;;5134877;27;20039;-62
2022/06/05 09:59:29;;;;;;;84.75;80.82;;;26.20;96.40;;;;;;5119650;27;20606;-62
2022/06/05 10:01:59;;;;;;;77.78;74.28;;;26.30;95.30;;;;;;5135729;27;20398;-62
2022/06/05 10:04:29;;;;;;;71.65;68.25;;;26.30;95.10;;;;;;5101931;27;20051;-62
2022/06/05 10:07:06;;;;;;;67.85;64.30;;;26.40;95.20;;;;;;5118094;27;20063;-62
2022/06/05 10:09:34;;;;;;;61.03;58.25;;;26.40;94.40;;;;;;5136273;27;20043;-62
2022/06/05 10:12:03;;;;;;;56.90;54.20;;;26.50;94.20;;;;;;5136576;27;20100;-62
2022/06/05 10:14:36;;;;;;;50.58;48.08;;;26.70;92.80;;;;;;5117436;27;20105;-62
2022/06/05 10:17:23;;;;;;;48.40;45.83;;;26.80;92.60;;;;;;5118534;27;20058;-62
2022/06/05 10:20:04;;;;;;;45.08;42.78;;;26.90;92.70;;;;;;5114754;28;20115;-62
2022/06/05 10:22:46;;;;;;;43.10;40.47;;;27.00;92.80;;;;;;5117024;27;20051;-62
2022/06/05 10:25:24;;;;;;;41.97;39.63;;;;;;;;;;5137034;27;20043;-62
2022/06/05 10:27:52;;;;;;;41.60;39.45;;;;;;;;;;5136484;27;20051;-62
2022/06/05 10:30:19;;;;;;;40.30;38.05;;;;;;;;;;5125893;27;20424;-63
2022/06/05 10:33:01;;;;;;;41.65;39.53;;;27.40;91.10;;;;;;5115493;28;20139;-62
2022/06/05 10:35:35;;;;;;;43.53;40.97;;;27.60;90.40;;;;;;5123686;27;20405;-62
2022/06/05 10:38:37;;;;;;;44.30;41.90;;;27.70;90.10;;;;;;5134022;27;20043;-62
2022/06/05 10:41:15;;;;;;;44.80;42.47;;;28.00;88.60;;;;;;5132721;27;20043;-62
2022/06/05 10:43:42;;;;;;;44.80;42.53;;;28.20;86.50;;;;;;5132759;27;20043;-62
2022/06/05 10:46:21;;;;;;;44.85;42.67;;;28.50;84.90;;;;;;5134243;27;20055;-62
2022/06/05 10:48:55;;;;;;;44.97;42.78;;;28.80;83.40;;;;;;5134561;27;20035;-62
2022/06/05 10:51:39;;;;;;;43.78;41.40;;;29.00;81.60;;;;;;5130020;27;20470;-62
2022/06/05 10:54:14;;;;;;;41.38;39.22;;;29.50;81.00;;;;;;5115622;28;20421;-62
2022/06/05 10:57:05;;;;;;;41.13;39.08;;;29.90;77.90;;;;;;5131107;27;20150;-62
2022/06/05 10:59:46;;;;;;;41.88;39.53;;;30.20;76.40;;;;;;5116331;27;20557;-63
2022/06/05 11:02:31;;;;;;;39.75;37.55;;;30.20;74.10;;;;;;5134726;27;20051;-62
2022/06/05 11:05:31;;;;;;;39.28;37.20;;;30.00;75.30;;;;;;5130268;27;20100;-63
2022/06/05 11:08:23;;;;;;;38.55;36.55;;;30.00;74.60;;;;;;5130780;27;20047;-63
2022/06/05 11:13:51;;;;;;;36.77;34.93;;;29.60;75.20;;;;;;5135371;27;20092;-63
2022/06/05 11:16:38;;;;;;;37.83;35.63;;;29.50;73.10;;;;;;5117407;27;20090;-63
2022/06/05 11:19:08;;;;;;;37.97;36.10;;;29.40;74.60;;;;;;5134787;27;20047;-63
2022/06/05 11:21:36;;;;;;;38.95;36.85;;;29.20;74.50;;;;;;5134968;27;20434;-63
2022/06/05 11:24:07;;;;;;;36.47;34.58;;;29.20;74.40;;;;;;5134661;27;20047;-63
2022/06/05 11:26:47;;;;;;;37.58;35.30;;;29.10;73.90;;;;;;5134162;27;20031;-63
2022/06/05 11:29:34;;;;;;;39.28;36.75;;;29.20;73.50;;;;;;5113836;27;20089;-63
2022/06/05 11:32:22;;;;;;;38.00;36.13;;;29.20;72.30;;;;;;5112503;28;20055;-62
2022/06/05 11:35:17;;;;;;;36.60;34.80;;;29.10;72.90;;;;;;5133953;27;20050;-63
2022/06/05 11:37:56;;;;;;;39.03;36.35;;;29.00;73.80;;;;;;5114500;28;20065;-63
2022/06/05 11:40:43;;;;;;;39.58;37.63;;;28.70;73.20;;;;;;5086620;28;20138;-63
2022/06/05 11:43:30;;;;;;;39.97;37.97;;;28.50;75.40;;;;;;5128218;27;20055;-63
2022/06/05 11:46:04;;;;;;;40.45;38.35;;;28.40;73.50;;;;;;5114408;27;20867;-63
2022/06/05 11:48:40;;;;;;;40.72;38.60;;;28.20;74.00;;;;;;5133328;27;20163;-62
2022/06/05 11:51:19;;;;;;;41.90;39.80;;;28.20;73.50;;;;;;5114942;27;20086;-62
2022/06/05 11:54:00;;;;;;;43.25;41.17;;;28.20;74.80;;;;;;5132746;27;20051;-63
2022/06/05 11:56:35;;;;;;;42.45;40.00;;;28.20;76.40;;;;;;5133127;27;20055;-63
2022/06/05 11:59:20;;;;;;;40.42;38.33;;;28.20;74.90;;;;;;5134301;27;20035;-63
2022/06/05 12:02:08;;;;;;;43.33;41.08;;;28.30;74.60;;;;;;5134194;27;20043;-63
2022/06/05 12:04:47;;;;;;;46.80;44.58;;;28.30;75.10;;;;;;5133908;27;20114;-63
2022/06/05 12:07:15;;;;;;;41.80;39.70;;;28.30;75.90;;;;;;5133759;27;20596;-62
2022/06/05 12:09:48;;;;;;;41.83;39.60;;;28.30;75.10;;;;;;5134589;27;20078;-62
2022/06/05 12:12:22;;;;;;;43.25;41.08;;;28.30;73.50;;;;;;5116117;27;20043;-63
2022/06/05 12:14:59;;;;;;;44.95;42.38;;;28.10;73.50;;;;;;5133557;27;20050;-63
2022/06/05 12:17:39;;;;;;;47.63;45.40;;;28.00;73.90;;;;;;5134607;27;20082;-62
2022/06/05 12:20:10;;;;;;;49.97;47.53;;;27.90;75.00;;;;;;5129638;27;20047;-63
2022/06/05 12:22:50;;;;;;;49.83;47.53;;;27.80;75.70;;;;;;5133670;27;20051;-63
2022/06/05 12:25:32;;;;;;;50.25;47.80;;;27.60;75.90;;;;;;5133966;27;20123;-62
2022/06/05 12:27:58;;;;;;;47.45;44.92;;;27.40;76.90;;;;;;5132514;27;20058;-63
2022/06/05 12:30:32;;;;;;;49.03;46.53;;;27.40;77.00;;;;;;5134365;27;20536;-63
2022/06/05 12:33:24;;;;;;;49.08;46.83;;;27.40;77.50;;;;;;5133733;27;20055;-64
2022/06/05 12:35:54;;;;;;;49.72;47.10;;;27.30;78.50;;;;;;5113490;27;20646;-62
2022/06/05 12:38:38;;;;;;;49.38;46.78;;;27.30;79.00;;;;;;5134037;27;20051;-62
2022/06/05 12:41:15;;;;;;;49.72;47.25;;;27.30;78.20;;;;;;5133121;27;20043;-62
2022/06/05 12:43:53;;;;;;;50.30;47.72;;;27.20;78.40;;;;;;5112688;27;20047;-62
2022/06/05 12:46:41;;;;;;;50.53;47.95;;;27.10;79.20;;;;;;5131500;27;20084;-62
2022/06/05 12:49:23;;;;;;;49.53;47.05;;;27.00;80.10;;;;;;5131802;27;20047;-62
2022/06/05 12:52:02;;;;;;;47.28;44.95;;;26.90;80.20;;;;;;5133830;27;20043;-62
2022/06/05 12:54:38;;;;;;;47.30;44.90;;;26.80;81.00;;;;;;5115616;27;20102;-62
2022/06/05 12:57:13;;;;;;;45.30;43.13;;;26.60;81.20;;;;;;5132991;27;20047;-63
2022/06/05 12:59:53;;;;;;;48.55;46.13;;;26.50;81.20;;;;;;5122129;27;20109;-64
2022/06/05 13:02:28;;;;;;;46.58;44.28;;;26.40;81.70;;;;;;5133943;27;20035;-62
2022/06/05 13:05:13;;;;;;;48.00;45.70;;;26.40;82.20;;;;;;5126059;27;20035;-63